sensor_id;sensor_type;location;lat;lon;timestamp;pressure;altitude;pressure_sealevel;temperature;humidity
3132;BME280;62090;52.330;9.104;2023-03-13T00:01:47;99872.09;;;9.65;100.00
3132;BME280;62090;52.330;9.104;2023-03-13T00:04:17;99855.94;;;9.63;100.00
3132;BME280;62090;52.330;9.104;2023-03-13T00:06:47;99862.81;;;9.67;100.00
3132;BME280;62090;52.330;9.104;2023-03-13T00:09:17;99839.63;;;9.49;100.00
3132;BME280;62090;52.330;9.104;2023-03-13T00:11:49;99827.81;;;9.52;100.00
3132;BME280;62090;52.330;9.104;2023-03-13T00:14:18;99804.06;;;9.52;100.00
3132;BME280;62090;52.330;9.104;2023-03-13T00:16:48;99840.72;;;9.64;100.00
3132;BME280;62090;52.330;9.104;2023-03-13T00:19:18;99820.34;;;9.61;100.00
3132;BME280;62090;52.330;9.104;2023-03-13T00:21:47;99825.63;;;9.77;100.00
3132;BME280;62090;52.330;9.104;2023-03-13T00:24:17;99826.41;;;9.74;100.00
3132;BME280;62090;52.330;9.104;2023-03-13T00:26:49;99812.78;;;9.67;100.00
3132;BME280;62090;52.330;9.104;2023-03-13T00:29:19;99802.50;;;9.60;100.00
3132;BME280;62090;52.330;9.104;2023-03-13T00:31:48;99790.66;;;9.62;100.00
3132;BME280;62090;52.330;9.104;2023-03-13T00:34:18;99825.75;;;9.89;100.00
3132;BME280;62090;52.330;9.104;2023-03-13T00:36:48;99829.13;;;9.86;100.00
3132;BME280;62090;52.330;9.104;2023-03-13T00:39:18;99828.50;;;10.05;100.00
3132;BME280;62090;52.330;9.104;2023-03-13T00:41:50;99802.88;;;9.90;100.00
3132;BME280;62090;52.330;9.104;2023-03-13T00:44:20;99740.50;;;9.52;100.00
3132;BME280;62090;52.330;9.104;2023-03-13T00:46:49;99746.69;;;9.70;99.81
3132;BME280;62090;52.330;9.104;2023-03-13T00:49:19;99810.72;;;10.10;98.95
3132;BME280;62090;52.330;9.104;2023-03-13T00:51:49;99739.91;;;9.71;99.29
3132;BME280;62090;52.330;9.104;2023-03-13T00:54:18;99760.31;;;9.79;99.57
3132;BME280;62090;52.330;9.104;2023-03-13T00:56:51;99803.88;;;10.03;99.21
3132;BME280;62090;52.330;9.104;2023-03-13T00:59:20;99660.47;;;9.21;99.22
3132;BME280;62090;52.330;9.104;2023-03-13T01:01:50;99751.78;;;9.73;99.42
3132;BME280;62090;52.330;9.104;2023-03-13T01:04:20;99767.31;;;9.96;98.88
3132;BME280;62090;52.330;9.104;2023-03-13T01:06:50;99734.09;;;9.84;99.13
3132;BME280;62090;52.330;9.104;2023-03-13T01:09:19;99772.56;;;10.08;98.71
3132;BME280;62090;52.330;9.104;2023-03-13T01:11:52;99740.13;;;9.92;98.22
3132;BME280;62090;52.330;9.104;2023-03-13T01:14:21;99777.69;;;10.13;98.66
3132;BME280;62090;52.330;9.104;2023-03-13T01:16:52;99677.84;;;9.55;99.27
3132;BME280;62090;52.330;9.104;2023-03-13T01:19:23;99764.13;;;10.15;99.60
3132;BME280;62090;52.330;9.104;2023-03-13T01:21:53;99754.69;;;10.04;98.90
3132;BME280;62090;52.330;9.104;2023-03-13T01:24:23;99743.59;;;9.97;99.36
3132;BME280;62090;52.330;9.104;2023-03-13T01:26:56;99754.75;;;10.11;99.18
3132;BME280;62090;52.330;9.104;2023-03-13T01:29:26;99746.28;;;10.12;99.71
3132;BME280;62090;52.330;9.104;2023-03-13T01:31:56;99718.91;;;9.90;99.64
3132;BME280;62090;52.330;9.104;2023-03-13T01:34:26;99735.16;;;10.01;100.00
3132;BME280;62090;52.330;9.104;2023-03-13T01:36:56;99684.84;;;9.76;100.00
3132;BME280;62090;52.330;9.104;2023-03-13T01:39:26;99689.31;;;9.98;100.00
3132;BME280;62090;52.330;9.104;2023-03-13T01:41:58;99669.59;;;9.78;100.00
3132;BME280;62090;52.330;9.104;2023-03-13T01:44:28;99665.41;;;9.84;100.00
3132;BME280;62090;52.330;9.104;2023-03-13T01:46:58;99648.34;;;9.74;100.00
3132;BME280;62090;52.330;9.104;2023-03-13T01:49:53;99636.38;;;9.64;100.00
3132;BME280;62090;52.330;9.104;2023-03-13T01:52:48;99644.19;;;9.84;100.00
3132;BME280;62090;52.330;9.104;2023-03-13T01:55:22;99534.25;;;9.21;100.00
3132;BME280;62090;52.330;9.104;2023-03-13T01:57:55;99658.09;;;10.16;100.00
3132;BME280;62090;52.330;9.104;2023-03-13T02:00:29;99655.50;;;10.11;100.00
3132;BME280;62090;52.330;9.104;2023-03-13T02:03:03;99572.84;;;9.67;100.00
3132;BME280;62090;52.330;9.104;2023-03-13T02:05:34;99607.78;;;9.86;100.00
3132;BME280;62090;52.330;9.104;2023-03-13T02:08:08;99577.94;;;9.67;100.00
3132;BME280;62090;52.330;9.104;2023-03-13T02:10:45;99557.41;;;9.52;100.00
3132;BME280;62090;52.330;9.104;2023-03-13T02:13:21;99628.25;;;10.01;100.00
3132;BME280;62090;52.330;9.104;2023-03-13T02:15:51;99592.50;;;9.86;100.00
3132;BME280;62090;52.330;9.104;2023-03-13T02:18:20;99618.13;;;10.04;100.00
3132;BME280;62090;52.330;9.104;2023-03-13T02:20:53;99581.47;;;9.83;100.00
3132;BME280;62090;52.330;9.104;2023-03-13T02:23:29;99558.47;;;9.73;100.00
3132;BME280;62090;52.330;9.104;2023-03-13T02:26:02;99538.03;;;9.61;100.00
3132;BME280;62090;52.330;9.104;2023-03-13T02:28:34;99575.63;;;9.97;100.00
3132;BME280;62090;52.330;9.104;2023-03-13T02:31:11;99573.00;;;9.87;100.00
3132;BME280;62090;52.330;9.104;2023-03-13T02:33:42;99577.41;;;10.07;100.00
3132;BME280;62090;52.330;9.104;2023-03-13T02:36:16;99565.47;;;10.00;100.00
3132;BME280;62090;52.330;9.104;2023-03-13T02:38:50;99532.25;;;9.84;100.00
3132;BME280;62090;52.330;9.104;2023-03-13T02:41:27;99520.50;;;9.98;100.00
3132;BME280;62090;52.330;9.104;2023-03-13T02:43:58;99529.00;;;10.01;100.00
3132;BME280;62090;52.330;9.104;2023-03-13T02:46:28;99534.97;;;10.03;100.00
3132;BME280;62090;52.330;9.104;2023-03-13T02:48:58;99512.94;;;10.04;100.00
3132;BME280;62090;52.330;9.104;2023-03-13T02:51:41;99480.56;;;9.86;100.00
3132;BME280;62090;52.330;9.104;2023-03-13T02:54:17;99496.78;;;9.99;100.00
3132;BME280;62090;52.330;9.104;2023-03-13T02:56:53;99448.28;;;9.79;100.00
3132;BME280;62090;52.330;9.104;2023-03-13T02:59:24;99481.50;;;9.99;100.00
3132;BME280;62090;52.330;9.104;2023-03-13T03:01:54;99471.28;;;9.94;100.00
3132;BME280;62090;52.330;9.104;2023-03-13T03:04:25;99481.56;;;10.15;100.00
3132;BME280;62090;52.330;9.104;2023-03-13T03:06:55;99454.31;;;9.92;100.00
3132;BME280;62090;52.330;9.104;2023-03-13T03:09:25;99474.81;;;10.14;100.00
3132;BME280;62090;52.330;9.104;2023-03-13T03:12:02;99458.75;;;10.20;100.00
3132;BME280;62090;52.330;9.104;2023-03-13T03:14:32;99318.34;;;9.41;100.00
3132;BME280;62090;52.330;9.104;2023-03-13T03:17:02;99419.59;;;10.01;100.00
3132;BME280;62090;52.330;9.104;2023-03-13T03:19:31;99435.00;;;10.27;100.00
3132;BME280;62090;52.330;9.104;2023-03-13T03:22:01;99412.94;;;10.23;100.00
3132;BME280;62090;52.330;9.104;2023-03-13T03:24:32;99390.78;;;10.11;100.00
3132;BME280;62090;52.330;9.104;2023-03-13T03:27:05;99422.28;;;10.27;100.00
3132;BME280;62090;52.330;9.104;2023-03-13T03:29:41;99391.63;;;10.04;100.00
3132;BME280;62090;52.330;9.104;2023-03-13T03:32:11;99426.47;;;10.21;100.00
3132;BME280;62090;52.330;9.104;2023-03-13T03:34:41;99380.59;;;10.04;100.00
3132;BME280;62090;52.330;9.104;2023-03-13T03:37:12;99418.88;;;10.27;100.00
3132;BME280;62090;52.330;9.104;2023-03-13T03:39:42;99383.13;;;10.04;100.00
3132;BME280;62090;52.330;9.104;2023-03-13T03:42:14;99402.69;;;10.14;100.00
3132;BME280;62090;52.330;9.104;2023-03-13T03:44:44;99353.34;;;9.83;100.00
3132;BME280;62090;52.330;9.104;2023-03-13T03:47:14;99405.22;;;10.14;100.00
3132;BME280;62090;52.330;9.104;2023-03-13T03:49:46;99396.72;;;10.09;100.00
3132;BME280;62090;52.330;9.104;2023-03-13T03:52:15;99398.47;;;10.16;100.00
3132;BME280;62090;52.330;9.104;2023-03-13T03:54:46;99367.81;;;9.95;100.00
3132;BME280;62090;52.330;9.104;2023-03-13T03:57:19;99281.91;;;9.39;100.00
3132;BME280;62090;52.330;9.104;2023-03-13T03:59:49;99330.34;;;9.68;100.00
3132;BME280;62090;52.330;9.104;2023-03-13T04:02:21;99372.06;;;10.00;100.00
3132;BME280;62090;52.330;9.104;2023-03-13T04:04:51;99301.50;;;9.58;100.00
3132;BME280;62090;52.330;9.104;2023-03-13T04:07:26;99326.19;;;9.84;100.00
3132;BME280;62090;52.330;9.104;2023-03-13T04:09:57;99312.59;;;9.74;100.00
3132;BME280;62090;52.330;9.104;2023-03-13T04:12:37;99358.59;;;10.16;100.00
3132;BME280;62090;52.330;9.104;2023-03-13T04:15:07;99118.09;;;8.78;100.00
3132;BME280;62090;52.330;9.104;2023-03-13T04:17:37;99285.44;;;9.70;100.00
3132;BME280;62090;52.330;9.104;2023-03-13T04:20:10;99152.03;;;8.94;100.00
3132;BME280;62090;52.330;9.104;2023-03-13T04:22:43;99177.59;;;9.21;100.00
3132;BME280;62090;52.330;9.104;2023-03-13T04:25:59;99232.81;;;9.52;100.00
3132;BME280;62090;52.330;9.104;2023-03-13T04:28:32;99283.88;;;10.05;100.00
3132;BME280;62090;52.330;9.104;2023-03-13T04:31:05;99270.22;;;9.84;100.00
3132;BME280;62090;52.330;9.104;2023-03-13T04:34:02;99310.16;;;10.06;100.00
3132;BME280;62090;52.330;9.104;2023-03-13T04:36:50;99271.97;;;9.95;100.00
3132;BME280;62090;52.330;9.104;2023-03-13T04:39:39;99261.78;;;9.86;100.00
3132;BME280;62090;52.330;9.104;2023-03-13T04:42:20;99286.44;;;10.08;100.00
3132;BME280;62090;52.330;9.104;2023-03-13T04:45:18;99274.59;;;10.15;100.00
3132;BME280;62090;52.330;9.104;2023-03-13T04:47:58;99260.09;;;9.87;100.00
3132;BME280;62090;52.330;9.104;2023-03-13T04:50:57;99284.69;;;9.88;100.00
3132;BME280;62090;52.330;9.104;2023-03-13T04:53:46;99224.31;;;9.52;100.00
3132;BME280;62090;52.330;9.104;2023-03-13T04:56:34;99199.72;;;9.42;100.00
3132;BME280;62090;52.330;9.104;2023-03-13T04:59:30;99274.53;;;9.98;100.00
3132;BME280;62090;52.330;9.104;2023-03-13T05:02:06;99223.56;;;9.79;100.00
3132;BME280;62090;52.330;9.104;2023-03-13T05:04:46;99255.03;;;9.97;100.00
3132;BME280;62090;52.330;9.104;2023-03-13T05:07:36;99260.16;;;10.12;100.00
3132;BME280;62090;52.330;9.104;2023-03-13T05:10:29;99266.91;;;10.10;100.00
3132;BME280;62090;52.330;9.104;2023-03-13T05:13:24;99255.88;;;10.02;100.00
3132;BME280;62090;52.330;9.104;2023-03-13T05:16:26;99261.84;;;10.13;100.00
3132;BME280;62090;52.330;9.104;2023-03-13T05:19:21;99234.69;;;10.12;100.00
3132;BME280;62090;52.330;9.104;2023-03-13T05:22:20;99206.69;;;10.08;100.00
3132;BME280;62090;52.330;9.104;2023-03-13T05:25:25;99227.94;;;10.14;100.00
3132;BME280;62090;52.330;9.104;2023-03-13T05:28:15;99227.97;;;10.22;100.00
3132;BME280;62090;52.330;9.104;2023-03-13T05:30:47;99210.16;;;10.30;100.00
3132;BME280;62090;52.330;9.104;2023-03-13T05:33:55;99203.38;;;10.41;100.00
3132;BME280;62090;52.330;9.104;2023-03-13T05:37:01;99227.97;;;10.43;100.00
3132;BME280;62090;52.330;9.104;2023-03-13T05:39:43;99184.69;;;10.24;100.00
3132;BME280;62090;52.330;9.104;2023-03-13T05:42:24;99188.94;;;10.28;100.00
3132;BME280;62090;52.330;9.104;2023-03-13T05:45:19;99199.09;;;10.32;100.00
3132;BME280;62090;52.330;9.104;2023-03-13T05:48:09;99211.88;;;10.50;100.00
3132;BME280;62090;52.330;9.104;2023-03-13T05:51:13;99192.31;;;10.52;100.00
3132;BME280;62090;52.330;9.104;2023-03-13T05:53:51;99187.25;;;10.55;100.00
3132;BME280;62090;52.330;9.104;2023-03-13T05:56:34;99150.75;;;10.32;100.00
3132;BME280;62090;52.330;9.104;2023-03-13T05:59:13;99172.81;;;10.62;100.00
3132;BME280;62090;52.330;9.104;2023-03-13T06:01:59;99202.50;;;10.87;100.00
3132;BME280;62090;52.330;9.104;2023-03-13T06:04:38;99195.69;;;10.80;100.00
3132;BME280;62090;52.330;9.104;2023-03-13T06:07:09;99180.38;;;10.89;100.00
3132;BME280;62090;52.330;9.104;2023-03-13T06:09:41;99191.47;;;10.82;100.00
3132;BME280;62090;52.330;9.104;2023-03-13T06:12:12;99180.41;;;10.80;100.00
3132;BME280;62090;52.330;9.104;2023-03-13T06:14:41;99181.25;;;10.87;100.00
3132;BME280;62090;52.330;9.104;2023-03-13T06:17:21;99160.88;;;10.82;100.00
3132;BME280;62090;52.330;9.104;2023-03-13T06:19:51;99169.31;;;11.04;100.00
3132;BME280;62090;52.330;9.104;2023-03-13T06:22:20;99173.56;;;10.94;100.00
3132;BME280;62090;52.330;9.104;2023-03-13T06:24:53;99141.34;;;10.89;100.00
3132;BME280;62090;52.330;9.104;2023-03-13T06:27:22;99140.44;;;11.04;100.00
3132;BME280;62090;52.330;9.104;2023-03-13T06:29:52;99148.94;;;11.04;100.00
3132;BME280;62090;52.330;9.104;2023-03-13T06:32:22;99114.97;;;10.91;100.00
3132;BME280;62090;52.330;9.104;2023-03-13T06:34:51;99144.66;;;11.14;100.00
3132;BME280;62090;52.330;9.104;2023-03-13T06:37:21;99127.66;;;11.13;100.00
3132;BME280;62090;52.330;9.104;2023-03-13T06:39:53;99120.03;;;11.07;100.00
3132;BME280;62090;52.330;9.104;2023-03-13T06:42:23;99103.03;;;11.07;100.00
3132;BME280;62090;52.330;9.104;2023-03-13T06:44:53;99139.53;;;11.20;100.00
3132;BME280;62090;52.330;9.104;2023-03-13T06:47:22;99103.88;;;11.06;100.00
3132;BME280;62090;52.330;9.104;2023-03-13T06:49:52;99149.63;;;11.38;100.00
3132;BME280;62090;52.330;9.104;2023-03-13T06:52:22;99137.69;;;11.51;100.00
3132;BME280;62090;52.330;9.104;2023-03-13T06:55:10;99149.59;;;11.49;100.00
3132;BME280;62090;52.330;9.104;2023-03-13T06:57:40;99147.81;;;11.58;100.00
3132;BME280;62090;52.330;9.104;2023-03-13T07:00:11;99153.75;;;11.68;100.00
3132;BME280;62090;52.330;9.104;2023-03-13T07:02:40;99118.09;;;11.53;100.00
3132;BME280;62090;52.330;9.104;2023-03-13T07:05:10;99146.94;;;11.67;100.00
3132;BME280;62090;52.330;9.104;2023-03-13T07:07:40;99152.06;;;11.73;100.00
3132;BME280;62090;52.330;9.104;2023-03-13T07:10:13;99134.16;;;11.71;100.00
3132;BME280;62090;52.330;9.104;2023-03-13T07:12:42;99102.78;;;11.54;100.00
3132;BME280;62090;52.330;9.104;2023-03-13T07:15:12;99145.19;;;11.81;100.00
3132;BME280;62090;52.330;9.104;2023-03-13T07:17:42;99118.88;;;11.65;100.00
3132;BME280;62090;52.330;9.104;2023-03-13T07:20:12;99118.00;;;11.69;100.00
3132;BME280;62090;52.330;9.104;2023-03-13T07:22:43;99117.19;;;11.66;100.00
3132;BME280;62090;52.330;9.104;2023-03-13T07:25:15;99081.59;;;11.46;100.00
3132;BME280;62090;52.330;9.104;2023-03-13T07:27:45;99140.13;;;11.76;100.00
3132;BME280;62090;52.330;9.104;2023-03-13T07:30:19;99088.38;;;11.50;100.00
3132;BME280;62090;52.330;9.104;2023-03-13T07:32:48;99122.22;;;11.79;100.00
3132;BME280;62090;52.330;9.104;2023-03-13T07:35:18;99122.25;;;11.78;100.00
3132;BME280;62090;52.330;9.104;2023-03-13T07:37:48;99129.88;;;11.81;100.00
3132;BME280;62090;52.330;9.104;2023-03-13T07:40:20;99154.47;;;11.93;100.00
3132;BME280;62090;52.330;9.104;2023-03-13T07:42:50;99136.66;;;11.87;100.00
3132;BME280;62090;52.330;9.104;2023-03-13T07:45:19;99144.22;;;11.99;100.00
3132;BME280;62090;52.330;9.104;2023-03-13T07:47:49;99153.56;;;12.01;100.00
3132;BME280;62090;52.330;9.104;2023-03-13T07:50:19;99145.13;;;11.95;100.00
3132;BME280;62090;52.330;9.104;2023-03-13T07:52:48;99186.63;;;12.18;100.00
3132;BME280;62090;52.330;9.104;2023-03-13T07:55:21;99135.78;;;11.89;100.00
3132;BME280;62090;52.330;9.104;2023-03-13T07:57:50;99180.69;;;12.17;100.00
3132;BME280;62090;52.330;9.104;2023-03-13T08:00:21;99192.53;;;12.26;100.00
3132;BME280;62090;52.330;9.104;2023-03-13T08:02:51;99178.88;;;12.28;100.00
3132;BME280;62090;52.330;9.104;2023-03-13T08:05:20;99110.19;;;11.97;100.00
3132;BME280;62090;52.330;9.104;2023-03-13T08:07:50;99172.00;;;12.38;100.00
3132;BME280;62090;52.330;9.104;2023-03-13T08:10:22;99141.50;;;12.20;100.00
3132;BME280;62090;52.330;9.104;2023-03-13T08:12:52;99155.91;;;12.28;100.00
3132;BME280;62090;52.330;9.104;2023-03-13T08:15:21;99143.09;;;12.36;100.00
3132;BME280;62090;52.330;9.104;2023-03-13T08:17:52;99160.88;;;12.45;100.00
3132;BME280;62090;52.330;9.104;2023-03-13T08:20:21;99154.81;;;12.54;100.00
3132;BME280;62090;52.330;9.104;2023-03-13T08:22:54;99119.25;;;12.36;100.00
3132;BME280;62090;52.330;9.104;2023-03-13T08:25:26;99152.22;;;12.61;100.00
3132;BME280;62090;52.330;9.104;2023-03-13T08:27:56;99149.56;;;12.70;100.00
3132;BME280;62090;52.330;9.104;2023-03-13T08:30:28;99154.72;;;12.67;100.00
3132;BME280;62090;52.330;9.104;2023-03-13T08:32:57;99098.88;;;12.31;100.00
3132;BME280;62090;52.330;9.104;2023-03-13T08:35:27;99101.19;;;12.54;100.00
3132;BME280;62090;52.330;9.104;2023-03-13T08:37:57;99118.06;;;12.70;100.00
3132;BME280;62090;52.330;9.104;2023-03-13T08:40:31;99035.09;;;12.22;100.00
3132;BME280;62090;52.330;9.104;2023-03-13T08:43:00;99130.66;;;12.88;100.00
3132;BME280;62090;52.330;9.104;2023-03-13T08:45:30;99143.38;;;12.93;100.00
3132;BME280;62090;52.330;9.104;2023-03-13T08:48:00;99034.13;;;12.34;100.00
3132;BME280;62090;52.330;9.104;2023-03-13T08:50:30;99074.69;;;12.62;100.00
3132;BME280;62090;52.330;9.104;2023-03-13T08:52:59;99118.59;;;12.96;100.00
3132;BME280;62090;52.330;9.104;2023-03-13T08:55:32;99042.44;;;12.52;100.00
3132;BME280;62090;52.330;9.104;2023-03-13T08:58:01;98924.03;;;11.80;100.00
3132;BME280;62090;52.330;9.104;2023-03-13T09:00:31;99072.09;;;12.68;100.00
3132;BME280;62090;52.330;9.104;2023-03-13T09:03:01;99110.03;;;13.02;100.00
3132;BME280;62090;52.330;9.104;2023-03-13T09:05:31;98930.72;;;11.93;100.00
3132;BME280;62090;52.330;9.104;2023-03-13T09:08:20;99092.31;;;12.87;100.00
3132;BME280;62090;52.330;9.104;2023-03-13T09:10:57;99066.00;;;12.77;100.00
3132;BME280;62090;52.330;9.104;2023-03-13T09:13:29;99082.97;;;12.84;100.00
3132;BME280;62090;52.330;9.104;2023-03-13T09:16:01;99097.47;;;12.84;100.00
3132;BME280;62090;52.330;9.104;2023-03-13T09:18:32;98998.31;;;12.38;100.00
3132;BME280;62090;52.330;9.104;2023-03-13T09:21:07;99062.66;;;12.74;100.00
3132;BME280;62090;52.330;9.104;2023-03-13T09:23:37;99087.19;;;12.90;100.00
3132;BME280;62090;52.330;9.104;2023-03-13T09:26:11;99034.69;;;12.58;100.00
3132;BME280;62090;52.330;9.104;2023-03-13T09:28:41;99123.50;;;13.18;100.00
3132;BME280;62090;52.330;9.104;2023-03-13T09:31:12;99115.88;;;13.16;100.00
3132;BME280;62090;52.330;9.104;2023-03-13T09:33:43;99027.03;;;12.60;100.00
3132;BME280;62090;52.330;9.104;2023-03-13T09:36:14;99084.53;;;12.96;100.00
3132;BME280;62090;52.330;9.104;2023-03-13T09:38:48;99072.59;;;12.96;100.00
3132;BME280;62090;52.330;9.104;2023-03-13T09:41:26;99064.97;;;12.92;100.00
3132;BME280;62090;52.330;9.104;2023-03-13T09:44:04;99084.38;;;13.08;100.00
3132;BME280;62090;52.330;9.104;2023-03-13T09:46:40;99081.81;;;13.11;100.00
3132;BME280;62090;52.330;9.104;2023-03-13T09:49:16;99109.75;;;13.28;100.00
3132;BME280;62090;52.330;9.104;2023-03-13T09:51:49;99116.38;;;13.42;100.00
3132;BME280;62090;52.330;9.104;2023-03-13T09:54:24;99105.25;;;13.46;100.00
3132;BME280;62090;52.330;9.104;2023-03-13T09:57:04;99076.47;;;13.29;100.00
3132;BME280;62090;52.330;9.104;2023-03-13T09:59:42;99075.84;;;13.12;100.00
3132;BME280;62090;52.330;9.104;2023-03-13T10:02:21;99089.38;;;13.20;100.00
3132;BME280;62090;52.330;9.104;2023-03-13T10:04:59;99008.19;;;12.68;100.00
3132;BME280;62090;52.330;9.104;2023-03-13T10:07:31;99046.34;;;12.84;100.00
3132;BME280;62090;52.330;9.104;2023-03-13T10:10:02;98985.16;;;12.72;100.00
3132;BME280;62090;52.330;9.104;2023-03-13T10:12:39;99108.59;;;13.51;100.00
3132;BME280;62090;52.330;9.104;2023-03-13T10:15:32;98989.06;;;12.97;100.00
3132;BME280;62090;52.330;9.104;2023-03-13T10:18:12;99063.31;;;13.53;100.00
3132;BME280;62090;52.330;9.104;2023-03-13T10:20:48;99038.53;;;13.59;100.00
3132;BME280;62090;52.330;9.104;2023-03-13T10:23:21;99025.50;;;13.74;100.00
3132;BME280;62090;52.330;9.104;2023-03-13T10:25:55;99027.47;;;14.07;100.00
3132;BME280;62090;52.330;9.104;2023-03-13T10:28:28;99032.88;;;14.43;100.00
3132;BME280;62090;52.330;9.104;2023-03-13T10:31:04;99046.34;;;14.54;100.00
3132;BME280;62090;52.330;9.104;2023-03-13T10:33:37;99040.84;;;14.70;100.00
3132;BME280;62090;52.330;9.104;2023-03-13T10:36:09;99008.34;;;14.72;100.00
3132;BME280;62090;52.330;9.104;2023-03-13T10:38:48;99058.97;;;15.06;100.00
3132;BME280;62090;52.330;9.104;2023-03-13T10:41:22;99056.06;;;15.23;100.00
3132;BME280;62090;52.330;9.104;2023-03-13T10:43:59;98923.63;;;14.35;100.00
3132;BME280;62090;52.330;9.104;2023-03-13T10:46:31;98921.06;;;14.35;100.00
3132;BME280;62090;52.330;9.104;2023-03-13T10:49:03;98998.53;;;14.93;100.00
3132;BME280;62090;52.330;9.104;2023-03-13T10:51:36;98986.50;;;14.96;100.00
3132;BME280;62090;52.330;9.104;2023-03-13T10:54:14;99000.00;;;15.04;100.00
3132;BME280;62090;52.330;9.104;2023-03-13T10:56:45;99039.66;;;15.28;99.27
3132;BME280;62090;52.330;9.104;2023-03-13T10:59:24;98885.00;;;14.48;97.53
3132;BME280;62090;52.330;9.104;2023-03-13T11:01:59;98899.00;;;14.70;96.46
3132;BME280;62090;52.330;9.104;2023-03-13T11:04:31;99023.59;;;15.58;98.15
3132;BME280;62090;52.330;9.104;2023-03-13T11:07:04;98750.41;;;14.28;97.06
3132;BME280;62090;52.330;9.104;2023-03-13T11:09:35;98940.97;;;15.41;94.22
3132;BME280;62090;52.330;9.104;2023-03-13T11:12:09;98994.31;;;15.66;92.85
3132;BME280;62090;52.330;9.104;2023-03-13T11:14:44;98957.00;;;15.52;93.49
3132;BME280;62090;52.330;9.104;2023-03-13T11:17:23;98963.47;;;15.67;93.25
3132;BME280;62090;52.330;9.104;2023-03-13T11:20:04;98911.09;;;15.39;93.35
3132;BME280;62090;52.330;9.104;2023-03-13T11:22:48;98844.16;;;15.12;91.43
3132;BME280;62090;52.330;9.104;2023-03-13T11:25:29;98896.84;;;15.62;89.75
3132;BME280;62090;52.330;9.104;2023-03-13T11:28:16;98839.78;;;15.51;89.13
3132;BME280;62090;52.330;9.104;2023-03-13T11:31:00;98922.50;;;15.96;88.05
3132;BME280;62090;52.330;9.104;2023-03-13T11:33:38;98947.66;;;16.16;88.86
3132;BME280;62090;52.330;9.104;2023-03-13T11:36:18;98919.25;;;15.90;85.03
3132;BME280;62090;52.330;9.104;2023-03-13T11:38:53;98902.09;;;15.90;82.96
3132;BME280;62090;52.330;9.104;2023-03-13T11:41:31;98880.84;;;15.53;85.79
3132;BME280;62090;52.330;9.104;2023-03-13T11:44:23;98880.28;;;15.74;85.31
3132;BME280;62090;52.330;9.104;2023-03-13T11:47:14;98972.19;;;16.28;84.57
3132;BME280;62090;52.330;9.104;2023-03-13T11:49:59;98820.44;;;15.38;85.75
3132;BME280;62090;52.330;9.104;2023-03-13T11:52:41;98873.25;;;15.47;85.44
3132;BME280;62090;52.330;9.104;2023-03-13T11:55:36;98789.06;;;14.93;88.30
3132;BME280;62090;52.330;9.104;2023-03-13T12:01:05;98944.50;;;16.07;88.04
3132;BME280;62090;52.330;9.104;2023-03-13T12:03:45;98930.63;;;16.12;83.79
3132;BME280;62090;52.330;9.104;2023-03-13T12:06:25;98890.13;;;15.89;82.81
3132;BME280;62090;52.330;9.104;2023-03-13T12:09:03;98885.25;;;15.80;83.34
3132;BME280;62090;52.330;9.104;2023-03-13T12:11:38;98856.31;;;15.74;81.75
3132;BME280;62090;52.330;9.104;2023-03-13T12:14:14;98838.59;;;15.95;82.41
3132;BME280;62090;52.330;9.104;2023-03-13T12:17:19;98914.34;;;16.73;78.49
3132;BME280;62090;52.330;9.104;2023-03-13T12:20:33;98929.53;;;16.50;78.90
3132;BME280;62090;52.330;9.104;2023-03-13T12:23:36;98639.63;;;14.88;80.47
3132;BME280;62090;52.330;9.104;2023-03-13T12:26:40;98772.06;;;15.86;76.40
3132;BME280;62090;52.330;9.104;2023-03-13T12:29:14;98790.13;;;16.13;77.85
3132;BME280;62090;52.330;9.104;2023-03-13T12:31:49;98813.28;;;16.40;73.84
3132;BME280;62090;52.330;9.104;2023-03-13T12:34:25;98723.22;;;15.88;72.51
3132;BME280;62090;52.330;9.104;2023-03-13T12:37:19;98834.56;;;16.45;72.38
3132;BME280;62090;52.330;9.104;2023-03-13T12:39:57;98832.78;;;16.47;72.57
3132;BME280;62090;52.330;9.104;2023-03-13T12:42:53;98742.41;;;16.05;74.47
3132;BME280;62090;52.330;9.104;2023-03-13T12:45:30;98757.34;;;16.21;76.34
3132;BME280;62090;52.330;9.104;2023-03-13T12:48:46;98753.03;;;16.23;75.84
3132;BME280;62090;52.330;9.104;2023-03-13T12:52:22;98618.50;;;15.39;75.73
3132;BME280;62090;52.330;9.104;2023-03-13T12:56:15;98640.91;;;15.65;74.88
3132;BME280;62090;52.330;9.104;2023-03-13T13:06:59;98891.06;;;17.04;75.19
3132;BME280;62090;52.330;9.104;2023-03-13T13:10:10;98852.16;;;16.87;74.99
3132;BME280;62090;52.330;9.104;2023-03-13T13:12:45;98785.19;;;16.64;75.37
3132;BME280;62090;52.330;9.104;2023-03-13T13:15:25;98808.56;;;16.82;75.21
3132;BME280;62090;52.330;9.104;2023-03-13T13:18:23;98690.72;;;16.15;74.74
3132;BME280;62090;52.330;9.104;2023-03-13T13:21:44;98792.16;;;17.13;72.80
3132;BME280;62090;52.330;9.104;2023-03-13T13:24:39;98805.91;;;17.12;72.82
3132;BME280;62090;52.330;9.104;2023-03-13T15:40:16;98546.00;;;16.14;66.76
3132;BME280;62090;52.330;9.104;2023-03-13T15:42:52;98607.47;;;16.45;67.80
3132;BME280;62090;52.330;9.104;2023-03-13T15:45:31;98559.66;;;16.16;67.84
3132;BME280;62090;52.330;9.104;2023-03-13T16:05:24;98510.34;;;16.05;69.16
3132;BME280;62090;52.330;9.104;2023-03-13T16:08:05;98678.88;;;16.89;69.30
3132;BME280;62090;52.330;9.104;2023-03-13T16:11:00;98563.53;;;16.28;69.92
3132;BME280;62090;52.330;9.104;2023-03-13T16:13:45;98484.53;;;15.83;70.45
3132;BME280;62090;52.330;9.104;2023-03-13T16:16:55;98531.41;;;15.90;70.93
3132;BME280;62090;52.330;9.104;2023-03-13T16:26:40;98654.44;;;16.76;71.54
3132;BME280;62090;52.330;9.104;2023-03-13T16:29:47;98495.69;;;15.82;70.96
3132;BME280;62090;52.330;9.104;2023-03-13T16:33:44;98641.88;;;16.69;71.86
3132;BME280;62090;52.330;9.104;2023-03-13T17:00:58;98472.19;;;15.68;72.18
3132;BME280;62090;52.330;9.104;2023-03-13T17:04:00;98455.31;;;15.61;72.98
3132;BME280;62090;52.330;9.104;2023-03-13T17:06:31;98613.53;;;16.44;72.88
3132;BME280;62090;52.330;9.104;2023-03-13T17:09:02;98576.78;;;16.16;74.03
3132;BME280;62090;52.330;9.104;2023-03-13T17:11:33;98461.78;;;15.45;74.58